createdAt,value
2019-03-03T00:00:08.444Z,1006.11
2019-03-03T00:01:08.441Z,1006.16
2019-03-03T00:02:08.422Z,1006.13
2019-03-03T00:03:08.410Z,1006.10
2019-03-03T00:04:08.398Z,1006.15
2019-03-03T00:05:08.388Z,1006.14
2019-03-03T00:06:08.375Z,1006.13
2019-03-03T00:07:08.370Z,1006.17
2019-03-03T00:08:08.355Z,1006.16
2019-03-03T00:09:08.345Z,1006.10
2019-03-03T00:10:08.334Z,1006.10
2019-03-03T00:11:08.325Z,1006.03
2019-03-03T00:12:08.308Z,1006.04
2019-03-03T00:13:08.297Z,1006.03
2019-03-03T00:14:08.292Z,1006.03
2019-03-03T00:15:08.282Z,1005.96
2019-03-03T00:16:08.267Z,1005.95
2019-03-03T00:17:08.260Z,1005.95
2019-03-03T00:18:08.242Z,1005.90
2019-03-03T00:19:08.237Z,1005.80
2019-03-03T00:20:08.224Z,1005.82
2019-03-03T00:21:08.211Z,1005.81
2019-03-03T00:22:08.196Z,1005.79
2019-03-03T00:23:08.188Z,1005.77
2019-03-03T00:24:08.173Z,1005.78
2019-03-03T00:25:08.161Z,1005.79
2019-03-03T00:26:08.152Z,1005.79
2019-03-03T00:27:08.147Z,1005.70
2019-03-03T00:28:08.129Z,1005.76
2019-03-03T00:29:08.120Z,1005.66
2019-03-03T00:30:08.106Z,1005.74
2019-03-03T00:31:08.097Z,1005.71
2019-03-03T00:32:08.089Z,1005.64
2019-03-03T00:33:08.073Z,1005.65
2019-03-03T00:34:08.066Z,1005.66
2019-03-03T00:35:08.049Z,1005.67
2019-03-03T00:36:08.045Z,1005.60
2019-03-03T00:37:08.026Z,1005.63
2019-03-03T00:38:08.038Z,1005.61
2019-03-03T00:39:08.025Z,1005.66
2019-03-03T00:40:08.026Z,1005.57
2019-03-03T00:41:08.031Z,1005.61
2019-03-03T00:42:07.977Z,1005.58
2019-03-03T00:43:07.975Z,1005.52
2019-03-03T00:44:07.985Z,1005.52
2019-03-03T00:45:07.985Z,1005.53
2019-03-03T00:46:07.926Z,1005.59
2019-03-03T00:47:07.914Z,1005.60
2019-03-03T00:48:07.903Z,1005.56
2019-03-03T00:49:07.892Z,1005.58
2019-03-03T00:50:07.886Z,1005.57
2019-03-03T00:51:07.870Z,1005.59
2019-03-03T00:52:07.861Z,1005.56
2019-03-03T00:53:07.849Z,1005.53
2019-03-03T00:54:07.841Z,1005.53
2019-03-03T00:55:07.830Z,1005.50
2019-03-03T00:56:07.816Z,1005.54
2019-03-03T00:57:07.810Z,1005.50
2019-03-03T00:58:07.789Z,1005.47
2019-03-03T00:59:07.783Z,1005.46
2019-03-03T01:00:07.773Z,1005.44
2019-03-03T01:01:07.762Z,1005.47
2019-03-03T01:02:07.750Z,1005.52
2019-03-03T01:03:07.736Z,1005.37
2019-03-03T01:04:07.724Z,1005.40
2019-03-03T01:05:07.713Z,1005.43
2019-03-03T01:06:07.701Z,1005.46
2019-03-03T01:07:07.692Z,1005.42
2019-03-03T01:08:07.682Z,1005.42
2019-03-03T01:09:07.666Z,1005.44
2019-03-03T01:10:07.659Z,1005.36
2019-03-03T01:11:07.645Z,1005.43
2019-03-03T01:12:07.634Z,1005.42
2019-03-03T01:13:07.624Z,1005.41
2019-03-03T01:14:07.611Z,1005.43
2019-03-03T01:15:07.601Z,1005.43
2019-03-03T01:16:07.589Z,1005.48
2019-03-03T01:17:07.585Z,1005.42
2019-03-03T01:18:07.592Z,1005.39
2019-03-03T01:19:07.555Z,1005.43
2019-03-03T01:20:07.545Z,1005.47
2019-03-03T01:21:07.532Z,1005.45
2019-03-03T01:22:07.524Z,1005.41
2019-03-03T01:23:07.511Z,1005.39
2019-03-03T01:24:07.509Z,1005.43
2019-03-03T01:25:07.488Z,1005.39
2019-03-03T01:26:07.476Z,1005.38
2019-03-03T01:27:07.465Z,1005.38
2019-03-03T01:28:07.453Z,1005.39
2019-03-03T01:29:07.441Z,1005.36
2019-03-03T01:30:07.432Z,1005.39
2019-03-03T01:31:07.421Z,1005.38
2019-03-03T01:32:07.407Z,1005.39
2019-03-03T01:33:07.396Z,1005.40
2019-03-03T01:34:07.384Z,1005.40
2019-03-03T01:35:07.372Z,1005.40
2019-03-03T01:36:07.367Z,1005.35
2019-03-03T01:37:07.356Z,1005.35
2019-03-03T01:38:07.346Z,1005.33
2019-03-03T01:39:07.337Z,1005.28
2019-03-03T01:40:07.324Z,1005.28
2019-03-03T01:41:07.309Z,1005.24
2019-03-03T01:42:07.294Z,1005.29
2019-03-03T01:43:07.283Z,1005.30
2019-03-03T01:44:07.272Z,1005.22
2019-03-03T01:45:07.269Z,1005.19
2019-03-03T01:46:07.250Z,1005.21
2019-03-03T01:47:07.239Z,1005.20
2019-03-03T01:48:07.227Z,1005.15
2019-03-03T01:49:07.215Z,1005.14
2019-03-03T01:50:07.203Z,1005.11
2019-03-03T01:51:07.192Z,1005.09
2019-03-03T01:52:07.183Z,1005.15
2019-03-03T01:53:07.169Z,1005.13
2019-03-03T01:54:07.165Z,1005.17
2019-03-03T01:55:07.150Z,1005.14
2019-03-03T01:56:07.158Z,1005.09
2019-03-03T01:57:07.124Z,1005.13
2019-03-03T01:58:07.115Z,1005.07
2019-03-03T01:59:07.105Z,1005.01
2019-03-03T02:00:07.091Z,1005.06
2019-03-03T02:01:07.088Z,1004.99
2019-03-03T02:02:07.069Z,1004.91
2019-03-03T02:03:07.058Z,1004.89
2019-03-03T02:04:07.047Z,1004.88
2019-03-03T02:05:07.036Z,1004.87
2019-03-03T02:06:07.023Z,1004.78
2019-03-03T02:07:07.012Z,1004.84
2019-03-03T02:08:07.001Z,1004.82
2019-03-03T02:09:06.995Z,1004.80
2019-03-03T02:10:06.984Z,1004.77
2019-03-03T02:11:06.967Z,1004.79
2019-03-03T02:12:06.955Z,1004.77
2019-03-03T02:13:06.947Z,1004.78
2019-03-03T02:14:06.937Z,1004.81
2019-03-03T02:15:06.930Z,1004.83
2019-03-03T02:16:06.911Z,1004.82
2019-03-03T02:17:06.900Z,1004.77
2019-03-03T02:18:06.889Z,1004.77
2019-03-03T02:19:06.878Z,1004.80
2019-03-03T02:20:06.868Z,1004.75
2019-03-03T02:21:06.856Z,1004.75
2019-03-03T02:22:06.870Z,1004.68
2019-03-03T02:23:06.833Z,1004.71
2019-03-03T02:24:06.858Z,1004.63
2019-03-03T02:25:06.818Z,1004.67
2019-03-03T02:26:06.802Z,1004.68
2019-03-03T02:27:06.787Z,1004.66
2019-03-03T02:28:06.779Z,1004.65
2019-03-03T02:29:06.768Z,1004.70
2019-03-03T02:30:06.757Z,1004.58
2019-03-03T02:31:06.744Z,1004.64
2019-03-03T02:32:06.743Z,1004.61
2019-03-03T02:33:06.726Z,1004.68
2019-03-03T02:34:06.737Z,1004.61
2019-03-03T02:35:06.699Z,1004.61
2019-03-03T02:36:06.689Z,1004.61
2019-03-03T02:37:06.678Z,1004.65
2019-03-03T02:38:06.665Z,1004.59
2019-03-03T02:39:06.653Z,1004.57
2019-03-03T02:40:06.643Z,1004.54
2019-03-03T02:41:06.630Z,1004.64
2019-03-03T02:42:06.627Z,1004.58
2019-03-03T02:43:06.611Z,1004.51
2019-03-03T02:44:06.600Z,1004.57
2019-03-03T02:45:06.587Z,1004.51
2019-03-03T02:46:06.578Z,1004.54
2019-03-03T02:47:06.566Z,1004.52
2019-03-03T02:48:06.553Z,1004.53
2019-03-03T02:49:06.549Z,1004.58
2019-03-03T02:50:06.532Z,1004.49
2019-03-03T02:51:06.518Z,1004.51
2019-03-03T02:52:06.511Z,1004.43
2019-03-03T02:53:06.496Z,1004.49
2019-03-03T02:54:06.501Z,1004.52
2019-03-03T02:55:06.474Z,1004.50
2019-03-03T02:56:06.465Z,1004.46
2019-03-03T02:57:06.454Z,1004.47
2019-03-03T02:58:06.458Z,1004.44
2019-03-03T02:59:06.432Z,1004.44
2019-03-03T03:00:06.416Z,1004.45
2019-03-03T03:01:06.406Z,1004.42
2019-03-03T03:02:06.397Z,1004.38
2019-03-03T03:03:06.384Z,1004.47
2019-03-03T03:04:06.378Z,1004.44
2019-03-03T03:05:06.361Z,1004.48
2019-03-03T03:06:06.353Z,1004.50
2019-03-03T03:07:06.338Z,1004.56
2019-03-03T03:08:06.329Z,1004.48
2019-03-03T03:09:06.318Z,1004.51
2019-03-03T03:10:06.303Z,1004.38
2019-03-03T03:11:06.292Z,1004.49
2019-03-03T03:12:06.284Z,1004.34
2019-03-03T03:13:06.271Z,1004.38
2019-03-03T03:14:06.261Z,1004.38
2019-03-03T03:15:06.314Z,1004.35
2019-03-03T03:16:06.236Z,1004.36
2019-03-03T03:17:06.237Z,1004.34
2019-03-03T03:18:06.223Z,1004.33
2019-03-03T03:19:06.201Z,1004.27
2019-03-03T03:20:06.193Z,1004.32
2019-03-03T03:21:06.180Z,1004.28
2019-03-03T03:22:06.169Z,1004.31
2019-03-03T03:23:06.160Z,1004.29
2019-03-03T03:24:06.153Z,1004.25
2019-03-03T03:25:06.139Z,1004.24
2019-03-03T03:26:06.123Z,1004.19
2019-03-03T03:27:07.308Z,1004.22
2019-03-03T03:28:06.109Z,1004.20
2019-03-03T03:29:06.092Z,1004.20
2019-03-03T03:30:06.088Z,1004.14
2019-03-03T03:31:06.067Z,1004.09
2019-03-03T03:32:06.057Z,1004.08
2019-03-03T03:33:06.047Z,1004.08
2019-03-03T03:34:06.042Z,1004.03
2019-03-03T03:35:06.020Z,1004.02
2019-03-03T03:36:06.023Z,1004.00
2019-03-03T03:37:06.001Z,1004.00
2019-03-03T03:38:05.990Z,1004.02
2019-03-03T03:39:05.988Z,1004.02
2019-03-03T03:40:05.968Z,1004.03
2019-03-03T03:41:05.952Z,1004.00
2019-03-03T03:42:05.941Z,1003.94
2019-03-03T03:43:05.931Z,1003.95
2019-03-03T03:44:05.949Z,1003.92
2019-03-03T03:45:05.914Z,1003.86
2019-03-03T03:46:05.895Z,1003.84
2019-03-03T03:47:05.884Z,1003.89
2019-03-03T03:48:05.873Z,1003.89
2019-03-03T03:49:05.872Z,1003.84
2019-03-03T03:50:05.851Z,1003.81
2019-03-03T03:51:05.843Z,1003.75
2019-03-03T03:52:05.827Z,1003.78
2019-03-03T03:53:05.814Z,1003.71
2019-03-03T03:54:05.804Z,1003.71
2019-03-03T03:55:05.792Z,1003.67
2019-03-03T03:56:05.788Z,1003.68
2019-03-03T03:57:05.778Z,1003.66
2019-03-03T03:58:05.763Z,1003.66
2019-03-03T03:59:05.748Z,1003.61
2019-03-03T04:00:05.735Z,1003.66
2019-03-03T04:01:05.724Z,1003.57
2019-03-03T04:02:05.717Z,1003.57
2019-03-03T04:03:05.700Z,1003.61
2019-03-03T04:04:05.696Z,1003.58
2019-03-03T04:05:05.679Z,1003.63
2019-03-03T04:06:05.671Z,1003.63
2019-03-03T04:07:05.659Z,1003.62
2019-03-03T04:08:05.645Z,1003.66
2019-03-03T04:09:05.636Z,1003.63
2019-03-03T04:10:05.628Z,1003.63
2019-03-03T04:11:05.611Z,1003.56
2019-03-03T04:12:05.598Z,1003.62
2019-03-03T04:13:05.592Z,1003.54
2019-03-03T04:14:05.610Z,1003.57
2019-03-03T04:15:05.563Z,1003.50
2019-03-03T04:16:05.557Z,1003.46
2019-03-03T04:17:05.544Z,1003.41
2019-03-03T04:18:05.532Z,1003.33
2019-03-03T04:19:05.519Z,1003.33
2019-03-03T04:20:05.512Z,1003.32
2019-03-03T04:21:05.496Z,1003.26
2019-03-03T04:22:05.492Z,1003.24
2019-03-03T04:23:05.473Z,1003.25
2019-03-03T04:24:05.461Z,1003.23
2019-03-03T04:25:05.455Z,1003.23
2019-03-03T04:26:05.437Z,1003.26
2019-03-03T04:27:05.430Z,1003.20
2019-03-03T04:28:05.414Z,1003.18
2019-03-03T04:29:05.402Z,1003.20
2019-03-03T04:30:05.403Z,1003.16
2019-03-03T04:31:05.380Z,1003.12
2019-03-03T04:32:05.368Z,1003.11
2019-03-03T04:33:05.360Z,1003.11
2019-03-03T04:34:05.345Z,1003.10
2019-03-03T04:35:05.336Z,1003.16
2019-03-03T04:36:05.323Z,1003.14
2019-03-03T04:37:05.315Z,1003.14
2019-03-03T04:38:05.301Z,1003.18
2019-03-03T04:39:05.288Z,1003.17
2019-03-03T04:40:05.281Z,1003.20
2019-03-03T04:41:05.267Z,1003.15
2019-03-03T04:42:05.258Z,1003.14
2019-03-03T04:43:05.242Z,1003.19
2019-03-03T04:44:05.234Z,1003.18
2019-03-03T04:45:05.223Z,1003.11
2019-03-03T04:46:05.208Z,1003.12
2019-03-03T04:47:05.198Z,1003.18
2019-03-03T04:48:05.190Z,1003.23
2019-03-03T04:49:05.177Z,1003.23
2019-03-03T04:50:05.162Z,1003.16
2019-03-03T04:51:05.152Z,1003.11
2019-03-03T04:52:05.148Z,1003.14
2019-03-03T04:53:05.132Z,1003.14
2019-03-03T04:54:05.122Z,1003.12
2019-03-03T04:55:05.107Z,1003.04
2019-03-03T04:56:05.094Z,1003.08
2019-03-03T04:57:05.086Z,1003.14
2019-03-03T04:58:05.073Z,1003.04
2019-03-03T04:59:05.059Z,1003.11
2019-03-03T05:00:05.053Z,1003.03
2019-03-03T05:01:05.038Z,1003.02
2019-03-03T05:02:05.025Z,1003.12
2019-03-03T05:03:05.013Z,1003.03
2019-03-03T05:04:05.003Z,1003.04
2019-03-03T05:05:04.990Z,1003.02
2019-03-03T05:06:04.983Z,1003.01
2019-03-03T05:07:04.969Z,1003.09
2019-03-03T05:08:04.957Z,1003.07
2019-03-03T05:09:04.952Z,1003.06
2019-03-03T05:10:04.934Z,1003.11
2019-03-03T05:11:04.927Z,1003.06
2019-03-03T05:12:04.911Z,1003.05
2019-03-03T05:13:04.899Z,1003.02
2019-03-03T05:14:04.888Z,1002.93
2019-03-03T05:15:04.876Z,1003.03
2019-03-03T05:16:04.867Z,1003.02
2019-03-03T05:17:04.859Z,1002.98
2019-03-03T05:18:04.843Z,1002.98
2019-03-03T05:19:04.830Z,1002.95
2019-03-03T05:20:04.821Z,1002.94
2019-03-03T05:21:04.807Z,1002.99
2019-03-03T05:22:04.796Z,1002.92
2019-03-03T05:23:04.785Z,1002.95
2019-03-03T05:24:04.774Z,1002.96
2019-03-03T05:25:04.763Z,1002.91
2019-03-03T05:26:04.750Z,1002.94
2019-03-03T05:27:04.742Z,1002.91
2019-03-03T05:28:04.735Z,1002.93
2019-03-03T05:29:04.716Z,1002.91
2019-03-03T05:30:04.710Z,1002.93
2019-03-03T05:31:04.693Z,1002.85
2019-03-03T05:32:04.681Z,1002.90
2019-03-03T05:33:04.669Z,1002.90
2019-03-03T05:34:04.658Z,1002.83
2019-03-03T05:35:04.650Z,1002.87
2019-03-03T05:36:04.642Z,1002.85
2019-03-03T05:37:04.625Z,1002.90
2019-03-03T05:38:04.612Z,1002.87
2019-03-03T05:39:04.603Z,1002.82
2019-03-03T05:40:04.592Z,1002.75
2019-03-03T05:41:04.579Z,1002.77
2019-03-03T05:42:04.566Z,1002.79
2019-03-03T05:43:04.558Z,1002.80
2019-03-03T05:44:04.545Z,1002.73
2019-03-03T05:45:04.533Z,1002.63
2019-03-03T05:46:04.530Z,1002.68
2019-03-03T05:47:04.511Z,1002.72
2019-03-03T05:48:04.499Z,1002.62
2019-03-03T05:49:04.488Z,1002.62
2019-03-03T05:50:04.477Z,1002.57
2019-03-03T05:51:04.483Z,1002.56
2019-03-03T05:52:04.456Z,1002.55
2019-03-03T05:53:04.442Z,1002.59
2019-03-03T05:54:04.432Z,1002.54
2019-03-03T05:55:04.417Z,1002.51
2019-03-03T05:56:04.406Z,1002.51
2019-03-03T05:57:04.398Z,1002.50
2019-03-03T05:58:04.384Z,1002.50
2019-03-03T05:59:04.375Z,1002.55
2019-03-03T06:00:04.362Z,1002.54
2019-03-03T06:01:04.349Z,1002.62
2019-03-03T06:02:04.343Z,1002.62
2019-03-03T06:03:04.326Z,1002.59
2019-03-03T06:04:04.314Z,1002.55
2019-03-03T06:05:04.303Z,1002.57
2019-03-03T06:06:04.295Z,1002.55
2019-03-03T06:07:04.281Z,1002.52
2019-03-03T06:08:04.269Z,1002.43
2019-03-03T06:09:04.257Z,1002.49
2019-03-03T06:10:04.248Z,1002.49
2019-03-03T06:11:04.235Z,1002.43
2019-03-03T06:12:04.223Z,1002.48
2019-03-03T06:13:04.219Z,1002.53
2019-03-03T06:14:04.203Z,1002.48
2019-03-03T06:15:04.189Z,1002.46
2019-03-03T06:16:04.177Z,1002.45
2019-03-03T06:17:04.169Z,1002.43
2019-03-03T06:18:04.170Z,1002.45
2019-03-03T06:19:04.168Z,1002.45
2019-03-03T06:20:04.175Z,1002.49
2019-03-03T06:21:04.122Z,1002.50
2019-03-03T06:22:04.119Z,1002.38
2019-03-03T06:23:04.122Z,1002.36
2019-03-03T06:24:04.124Z,1002.35
2019-03-03T06:25:04.078Z,1002.38
2019-03-03T06:26:04.064Z,1002.39
2019-03-03T06:27:04.051Z,1002.42
2019-03-03T06:28:04.044Z,1002.42
2019-03-03T06:29:04.031Z,1002.38
2019-03-03T06:30:05.497Z,1002.37
2019-03-03T06:31:04.008Z,1002.38
2019-03-03T06:32:03.995Z,1002.38
2019-03-03T06:33:03.985Z,1002.33
2019-03-03T06:34:03.970Z,1002.40
2019-03-03T06:35:03.963Z,1002.41
2019-03-03T06:36:03.947Z,1002.35
2019-03-03T06:37:03.947Z,1002.30
2019-03-03T06:38:03.924Z,1002.25
2019-03-03T06:39:03.913Z,1002.25
2019-03-03T06:40:03.908Z,1002.24
2019-03-03T06:41:03.892Z,1002.18
2019-03-03T06:42:03.879Z,1002.10
2019-03-03T06:43:03.871Z,1002.10
2019-03-03T06:44:03.855Z,1002.09
2019-03-03T06:45:03.846Z,1002.10
2019-03-03T06:46:03.833Z,1002.04
2019-03-03T06:47:03.822Z,1002.00
2019-03-03T06:48:03.811Z,1002.07
2019-03-03T06:49:03.799Z,1002.06
2019-03-03T06:50:03.787Z,1002.13
2019-03-03T06:51:03.782Z,1002.02
2019-03-03T06:52:03.768Z,1002.08
2019-03-03T06:53:03.762Z,1002.00
2019-03-03T06:54:03.744Z,1002.12
2019-03-03T06:55:03.737Z,1002.04
2019-03-03T06:56:03.723Z,1002.05
2019-03-03T06:57:03.713Z,1002.06
2019-03-03T06:58:03.701Z,1002.07
2019-03-03T06:59:03.693Z,1002.06
2019-03-03T07:00:03.673Z,1001.99
2019-03-03T07:01:03.663Z,1002.09
2019-03-03T07:02:03.653Z,1002.00
2019-03-03T07:03:03.649Z,1002.04
2019-03-03T07:04:03.633Z,1002.03
2019-03-03T07:05:03.618Z,1002.11
2019-03-03T07:06:03.608Z,1002.09
2019-03-03T07:07:03.600Z,1002.04
2019-03-03T07:08:03.591Z,1002.04
2019-03-03T07:09:03.572Z,1002.03
2019-03-03T07:10:03.563Z,1001.91
2019-03-03T07:11:03.552Z,1001.89
2019-03-03T07:12:03.541Z,1001.89
2019-03-03T07:13:03.527Z,1001.83
2019-03-03T07:14:03.515Z,1001.86
2019-03-03T07:15:03.505Z,1001.89
2019-03-03T07:16:03.495Z,1001.86
2019-03-03T07:17:03.485Z,1001.85
2019-03-03T07:18:03.479Z,1001.90
2019-03-03T07:19:03.471Z,1001.94
2019-03-03T07:20:03.448Z,1001.95
2019-03-03T07:21:03.438Z,1001.87
2019-03-03T07:22:03.427Z,1001.98
2019-03-03T07:23:03.415Z,1001.97
2019-03-03T07:24:03.405Z,1002.04
2019-03-03T07:25:03.394Z,1001.81
2019-03-03T07:26:03.391Z,1001.90
2019-03-03T07:27:03.372Z,1001.86
2019-03-03T07:28:03.365Z,1001.84
2019-03-03T07:29:03.353Z,1001.86
2019-03-03T07:30:03.342Z,1001.89
2019-03-03T07:31:03.330Z,1001.95
2019-03-03T07:32:03.327Z,1001.88
2019-03-03T07:33:03.307Z,1001.84
2019-03-03T07:34:03.299Z,1001.92
2019-03-03T07:35:03.287Z,1001.87
2019-03-03T07:36:03.274Z,1001.86
2019-03-03T07:37:03.262Z,1001.85
2019-03-03T07:38:03.251Z,1001.89
2019-03-03T07:39:03.243Z,1001.85
2019-03-03T07:40:03.235Z,1001.88
2019-03-03T07:41:03.220Z,1001.85
2019-03-03T07:42:03.206Z,1001.85
2019-03-03T07:43:03.195Z,1001.80
2019-03-03T07:44:03.184Z,1001.80
2019-03-03T07:45:04.620Z,1001.76
2019-03-03T07:46:03.171Z,1001.78
2019-03-03T07:47:03.152Z,1001.79
2019-03-03T07:48:03.143Z,1001.77
2019-03-03T07:49:03.126Z,1001.75
2019-03-03T07:50:03.122Z,1001.80
2019-03-03T07:51:03.109Z,1001.83
2019-03-03T07:52:03.109Z,1001.80
2019-03-03T07:53:03.087Z,1001.81
2019-03-03T07:54:03.071Z,1001.76
2019-03-03T07:55:03.061Z,1001.74
2019-03-03T07:56:03.048Z,1001.63
2019-03-03T07:57:03.037Z,1001.69
2019-03-03T07:58:03.028Z,1001.64
2019-03-03T07:59:03.017Z,1001.67
2019-03-03T08:00:03.003Z,1001.70
2019-03-03T08:01:02.989Z,1001.65
2019-03-03T08:02:02.980Z,1001.63
2019-03-03T08:03:02.969Z,1001.67
2019-03-03T08:04:02.959Z,1001.67
2019-03-03T08:05:02.955Z,1001.52
2019-03-03T08:06:02.934Z,1001.65
2019-03-03T08:07:02.929Z,1001.67
2019-03-03T08:08:02.914Z,1001.73
2019-03-03T08:09:02.902Z,1001.68
2019-03-03T08:10:02.895Z,1001.68
2019-03-03T08:11:02.886Z,1001.64
2019-03-03T08:12:02.865Z,1001.58
2019-03-03T08:13:09.249Z,1001.61
2019-03-03T08:14:03.868Z,1001.63
2019-03-03T08:15:02.832Z,1001.66
2019-03-03T08:16:02.823Z,1001.62
2019-03-03T08:17:02.816Z,1001.55
2019-03-03T08:18:02.799Z,1001.61
2019-03-03T08:19:02.789Z,1001.58
2019-03-03T08:20:02.776Z,1001.48
2019-03-03T08:21:02.763Z,1001.41
2019-03-03T08:22:02.753Z,1001.44
2019-03-03T08:23:02.748Z,1001.40
2019-03-03T08:24:02.738Z,1001.37
2019-03-03T08:25:02.720Z,1001.37
2019-03-03T08:26:02.705Z,1001.37
2019-03-03T08:27:02.693Z,1001.34
2019-03-03T08:28:02.685Z,1001.42
2019-03-03T08:29:02.672Z,1001.41
2019-03-03T08:30:02.674Z,1001.38
2019-03-03T08:31:02.649Z,1001.42
2019-03-03T08:32:02.636Z,1001.43
2019-03-03T08:33:02.629Z,1001.44
2019-03-03T08:34:02.620Z,1001.36
2019-03-03T08:35:02.604Z,1001.38
2019-03-03T08:36:02.593Z,1001.33
2019-03-03T08:37:02.578Z,1001.31
2019-03-03T08:38:02.569Z,1001.38
2019-03-03T08:39:02.558Z,1001.34
2019-03-03T08:40:02.545Z,1001.34
2019-03-03T08:41:02.534Z,1001.26
2019-03-03T08:42:02.523Z,1001.41
2019-03-03T08:43:04.104Z,1001.40
2019-03-03T08:44:02.498Z,1001.35
2019-03-03T08:45:02.489Z,1001.32
2019-03-03T08:46:02.478Z,1001.37
2019-03-03T08:47:02.461Z,1001.33
2019-03-03T08:48:02.450Z,1001.47
2019-03-03T08:49:02.438Z,1001.57
2019-03-03T08:50:02.432Z,1001.58
2019-03-03T08:51:02.413Z,1001.56
2019-03-03T08:52:02.405Z,1001.47
2019-03-03T08:53:02.394Z,1001.44
2019-03-03T08:54:02.383Z,1001.55
2019-03-03T08:55:02.372Z,1001.51
2019-03-03T08:56:02.354Z,1001.43
2019-03-03T08:57:02.345Z,1001.39
2019-03-03T08:58:02.335Z,1001.42
2019-03-03T08:59:02.319Z,1001.42
2019-03-03T09:00:02.309Z,1001.49
2019-03-03T09:01:02.304Z,1001.44
2019-03-03T09:02:02.290Z,1001.47
2019-03-03T09:03:02.274Z,1001.47
2019-03-03T09:04:02.260Z,1001.56
2019-03-03T09:05:02.250Z,1001.41
2019-03-03T09:06:02.240Z,1001.37
2019-03-03T09:07:02.229Z,1001.49
2019-03-03T09:08:02.218Z,1001.49
2019-03-03T09:09:02.207Z,1001.52
2019-03-03T09:10:02.191Z,1001.48
2019-03-03T09:11:02.179Z,1001.48
2019-03-03T09:12:02.169Z,1001.41
2019-03-03T09:13:02.155Z,1001.39
2019-03-03T09:14:02.144Z,1001.44
2019-03-03T09:15:02.131Z,1001.50
2019-03-03T09:16:02.135Z,1001.44
2019-03-03T09:17:02.109Z,1001.46
2019-03-03T09:18:02.095Z,1001.43
2019-03-03T09:19:02.085Z,1001.36
2019-03-03T09:20:02.072Z,1001.35
2019-03-03T09:21:02.063Z,1001.29
2019-03-03T09:22:02.054Z,1001.35
2019-03-03T09:23:02.041Z,1001.41
2019-03-03T09:24:02.025Z,1001.39
2019-03-03T09:25:02.013Z,1001.37
2019-03-03T09:26:02.002Z,1001.47
2019-03-03T09:27:01.999Z,1001.50
2019-03-03T09:28:01.984Z,1001.45
2019-03-03T09:29:01.968Z,1001.46
2019-03-03T09:30:01.961Z,1001.49
2019-03-03T09:31:01.956Z,1001.38
2019-03-03T09:32:01.938Z,1001.46
2019-03-03T09:33:01.918Z,1001.49
2019-03-03T09:34:01.912Z,1001.37
2019-03-03T09:35:01.901Z,1001.43
2019-03-03T09:36:01.883Z,1001.43
2019-03-03T09:37:01.873Z,1001.43
2019-03-03T09:38:01.867Z,1001.42
2019-03-03T09:39:01.879Z,1001.46
2019-03-03T09:40:09.072Z,1001.45
2019-03-03T09:41:26.302Z,1001.44
2019-03-03T09:42:26.291Z,1001.45
2019-03-03T09:43:26.278Z,1001.46
2019-03-03T09:44:26.269Z,1001.46
2019-03-03T09:45:26.264Z,1001.36
2019-03-03T09:46:26.244Z,1001.47
2019-03-03T09:47:26.234Z,1001.46
2019-03-03T09:48:26.223Z,1001.42
2019-03-03T09:49:26.226Z,1001.47
2019-03-03T09:50:26.199Z,1001.47
2019-03-03T09:51:26.196Z,1001.40
2019-03-03T09:52:26.176Z,1001.42
2019-03-03T09:53:26.171Z,1001.47
2019-03-03T09:54:26.153Z,1001.46
2019-03-03T09:55:26.147Z,1001.44
2019-03-03T09:56:26.131Z,1001.48
2019-03-03T09:57:26.118Z,1001.47
2019-03-03T09:58:26.109Z,1001.51
2019-03-03T09:59:26.105Z,1001.58
2019-03-03T10:00:26.084Z,1001.54
2019-03-03T10:01:26.073Z,1001.52
2019-03-03T10:02:26.063Z,1001.53
2019-03-03T10:03:26.048Z,1001.58
2019-03-03T10:04:26.043Z,1001.49
2019-03-03T10:05:26.027Z,1001.46
2019-03-03T10:06:26.021Z,1001.44
2019-03-03T10:07:26.007Z,1001.52
2019-03-03T10:08:25.998Z,1001.52
2019-03-03T10:09:25.980Z,1001.41
2019-03-03T10:10:25.970Z,1001.49
2019-03-03T10:11:25.960Z,1001.51
2019-03-03T10:12:26.717Z,1001.47
2019-03-03T10:13:25.934Z,1001.52
2019-03-03T10:14:25.936Z,1001.56
2019-03-03T10:15:25.923Z,1001.48
2019-03-03T10:16:25.902Z,1001.46
2019-03-03T10:17:25.890Z,1001.49
2019-03-03T10:18:25.882Z,1001.47
2019-03-03T10:19:25.866Z,1001.59
2019-03-03T10:20:25.858Z,1001.55
2019-03-03T10:21:25.848Z,1001.43
2019-03-03T10:22:25.840Z,1001.51
2019-03-03T10:23:25.829Z,1001.55
2019-03-03T10:24:25.813Z,1001.61
2019-03-03T10:25:25.809Z,1001.62
2019-03-03T10:26:25.796Z,1001.61
2019-03-03T10:27:25.778Z,1001.59
2019-03-03T10:28:25.767Z,1001.60
2019-03-03T10:29:25.757Z,1001.61
2019-03-03T10:30:25.747Z,1001.55
2019-03-03T10:31:25.736Z,1001.58
2019-03-03T10:32:25.723Z,1001.58
2019-03-03T10:33:25.713Z,1001.59
2019-03-03T10:34:25.706Z,1001.58
2019-03-03T10:35:25.691Z,1001.57
2019-03-03T10:36:25.678Z,1001.52
2019-03-03T10:37:25.671Z,1001.58
2019-03-03T10:38:25.656Z,1001.57
2019-03-03T10:39:25.646Z,1001.61
2019-03-03T10:40:25.636Z,1001.58
2019-03-03T10:41:25.630Z,1001.63
2019-03-03T10:42:27.764Z,1001.54
2019-03-03T10:43:25.629Z,1001.50
2019-03-03T10:44:25.592Z,1001.61
2019-03-03T10:45:25.589Z,1001.51
2019-03-03T10:46:25.568Z,1001.55
2019-03-03T10:47:25.558Z,1001.62
2019-03-03T10:48:25.548Z,1001.51
2019-03-03T10:49:25.540Z,1001.60
2019-03-03T10:50:25.527Z,1001.54
2019-03-03T10:51:25.514Z,1001.59
2019-03-03T10:52:25.504Z,1001.53
2019-03-03T10:53:25.491Z,1001.65
2019-03-03T10:54:25.496Z,1001.62
2019-03-03T10:55:25.470Z,1001.61
2019-03-03T10:56:25.459Z,1001.61
2019-03-03T10:57:25.449Z,1001.51
2019-03-03T10:58:25.438Z,1001.48
2019-03-03T10:59:25.425Z,1001.44
2019-03-03T11:00:25.413Z,1001.45
2019-03-03T11:01:25.410Z,1001.48
2019-03-03T11:02:25.391Z,1001.51
2019-03-03T11:03:25.381Z,1001.45
2019-03-03T11:04:25.370Z,1001.38
2019-03-03T11:05:25.361Z,1001.42
2019-03-03T11:06:25.354Z,1001.46
2019-03-03T11:07:25.340Z,1001.58
2019-03-03T11:08:25.325Z,1001.58
2019-03-03T11:09:25.315Z,1001.50
2019-03-03T11:10:25.303Z,1001.42
2019-03-03T11:11:25.292Z,1001.40
2019-03-03T11:12:25.282Z,1001.57
2019-03-03T11:13:25.269Z,1001.48
2019-03-03T11:14:25.260Z,1001.43
2019-03-03T11:15:25.246Z,1001.53
2019-03-03T11:16:25.241Z,1001.46
2019-03-03T11:17:25.227Z,1001.48
2019-03-03T11:18:25.224Z,1001.38
2019-03-03T11:19:25.232Z,1001.41
2019-03-03T11:20:25.194Z,1001.39
2019-03-03T11:21:25.193Z,1001.43
2019-03-03T11:22:25.194Z,1001.37
2019-03-03T11:23:25.202Z,1001.37
2019-03-03T11:24:25.207Z,1001.41
2019-03-03T11:25:25.147Z,1001.34
2019-03-03T11:26:25.149Z,1001.37
2019-03-03T11:27:25.154Z,1001.34
2019-03-03T11:28:25.165Z,1001.34
2019-03-03T11:29:25.096Z,1001.31
2019-03-03T11:30:25.080Z,1001.40
2019-03-03T11:31:25.069Z,1001.39
2019-03-03T11:32:25.058Z,1001.38
2019-03-03T11:33:25.048Z,1001.35
2019-03-03T11:34:25.036Z,1001.36
2019-03-03T11:35:25.025Z,1001.35
2019-03-03T11:36:25.015Z,1001.32
2019-03-03T11:37:25.003Z,1001.34
2019-03-03T11:38:24.994Z,1001.35
2019-03-03T11:39:25.001Z,1001.33
2019-03-03T11:40:24.973Z,1001.34
2019-03-03T11:41:24.961Z,1001.37
2019-03-03T11:42:24.948Z,1001.41
2019-03-03T11:43:24.936Z,1001.23
2019-03-03T11:44:24.927Z,1001.33
2019-03-03T11:45:24.914Z,1001.30
2019-03-03T11:46:24.958Z,1001.29
2019-03-03T11:47:24.893Z,1001.31
2019-03-03T11:48:24.881Z,1001.33
2019-03-03T11:49:24.875Z,1001.27
2019-03-03T11:50:24.859Z,1001.26
2019-03-03T11:51:24.858Z,1001.26
2019-03-03T11:52:24.838Z,1001.25
2019-03-03T11:53:24.829Z,1001.30
2019-03-03T11:54:24.814Z,1001.23
2019-03-03T11:55:24.812Z,1001.26
2019-03-03T11:56:24.792Z,1001.26
2019-03-03T11:57:24.784Z,1001.26
2019-03-03T11:58:24.770Z,1001.34
2019-03-03T11:59:24.759Z,1001.16
2019-03-03T12:00:24.749Z,1001.22
2019-03-03T12:01:24.739Z,1001.23
2019-03-03T12:02:24.727Z,1001.21
2019-03-03T12:03:24.718Z,1001.21
2019-03-03T12:04:24.705Z,1001.21
2019-03-03T12:05:24.692Z,1001.33